createdAt,value
2022-10-13T00:00:51.223Z,29.48
2022-10-13T00:03:18.889Z,29.90
2022-10-13T00:05:48.097Z,27.67
2022-10-13T00:08:19.381Z,37.80
2022-10-13T00:10:48.634Z,27.65
2022-10-13T00:13:16.309Z,25.02
2022-10-13T00:15:45.487Z,33.55
2022-10-13T00:18:13.202Z,31.17
2022-10-13T00:20:45.855Z,34.30
2022-10-13T00:23:14.037Z,25.15
2022-10-13T00:25:46.071Z,32.67
2022-10-13T00:28:14.125Z,30.95
2022-10-13T00:30:41.599Z,24.15
2022-10-13T00:33:09.987Z,26.33
2022-10-13T00:35:45.461Z,22.45
2022-10-13T00:38:12.792Z,32.10
2022-10-13T00:40:54.379Z,24.75
2022-10-13T00:43:22.689Z,25.70
2022-10-13T00:45:50.929Z,20.55
2022-10-13T00:48:30.000Z,25.38
2022-10-13T00:50:58.706Z,22.45
2022-10-13T00:53:30.707Z,27.25
2022-10-13T00:55:57.649Z,30.77
2022-10-13T00:58:31.344Z,23.33
2022-10-13T01:00:59.102Z,25.55
2022-10-13T01:03:26.532Z,22.48
2022-10-13T01:05:57.377Z,22.55
2022-10-13T01:11:09.357Z,18.38
2022-10-13T01:13:42.056Z,23.05
2022-10-13T01:16:24.250Z,19.17
2022-10-13T01:18:57.293Z,22.55
2022-10-13T01:21:39.542Z,28.55
2022-10-13T01:24:39.720Z,23.70
2022-10-13T01:27:27.884Z,18.80
2022-10-13T01:30:14.569Z,60.53
2022-10-13T01:32:53.610Z,42.40
2022-10-13T01:35:52.276Z,17.73
2022-10-13T01:38:56.740Z,19.92
2022-10-13T01:41:35.669Z,22.60
2022-10-13T01:44:17.162Z,20.25
2022-10-13T01:46:46.282Z,20.13
2022-10-13T01:49:16.431Z,20.25
2022-10-13T01:51:45.085Z,15.30
2022-10-13T01:54:11.966Z,20.90
2022-10-13T01:56:38.836Z,140.82
2022-10-13T01:59:11.526Z,143.10
2022-10-13T02:01:57.335Z,221.80
2022-10-13T02:04:35.962Z,174.32
2022-10-13T02:07:18.017Z,68.45
2022-10-13T02:09:58.025Z,38.10
2022-10-13T02:12:34.638Z,43.27
2022-10-13T02:15:02.986Z,18.92
2022-10-13T02:17:31.847Z,21.58
2022-10-13T02:19:59.478Z,21.40
2022-10-13T02:22:32.464Z,16.67
2022-10-13T02:24:59.995Z,16.98
2022-10-13T02:27:27.033Z,15.85
2022-10-13T02:29:56.431Z,15.93
2022-10-13T02:32:23.518Z,18.85
2022-10-13T02:34:51.350Z,15.88
2022-10-13T02:37:18.469Z,19.05
2022-10-13T02:39:45.388Z,19.88
2022-10-13T02:42:12.547Z,21.88
2022-10-13T02:44:40.226Z,19.42
2022-10-13T02:47:07.164Z,21.13
2022-10-13T02:49:34.073Z,32.03
2022-10-13T02:52:00.920Z,28.35
2022-10-13T02:54:28.371Z,27.23
2022-10-13T02:56:55.210Z,42.65
2022-10-13T02:59:22.071Z,34.80
2022-10-13T03:01:48.912Z,33.25
2022-10-13T03:04:15.750Z,33.92
2022-10-13T03:06:42.613Z,36.25
2022-10-13T03:09:09.490Z,27.27
2022-10-13T03:11:36.399Z,23.90
2022-10-13T03:14:03.278Z,28.15
2022-10-13T03:16:30.182Z,23.38
2022-10-13T03:18:57.038Z,21.45
2022-10-13T03:21:24.015Z,27.98
2022-10-13T03:23:51.178Z,23.63
2022-10-13T03:26:18.132Z,16.95
2022-10-13T03:28:52.218Z,23.08
2022-10-13T03:31:19.290Z,20.85
2022-10-13T03:33:46.283Z,17.58
2022-10-13T03:36:13.715Z,21.05
2022-10-13T03:38:40.705Z,24.58
2022-10-13T03:41:13.348Z,22.95
2022-10-13T03:43:41.301Z,17.30
2022-10-13T03:46:10.694Z,16.45
2022-10-13T03:48:38.270Z,25.17
2022-10-13T03:51:10.528Z,24.23
2022-10-13T03:53:38.054Z,25.77
2022-10-13T03:56:05.835Z,16.58
2022-10-13T03:58:32.912Z,15.93
2022-10-13T04:01:05.365Z,14.05
2022-10-13T04:03:33.362Z,16.02
2022-10-13T04:06:02.044Z,14.95
2022-10-13T04:08:30.255Z,11.50
2022-10-13T04:11:07.297Z,16.63
2022-10-13T04:13:34.432Z,14.93
2022-10-13T04:16:06.929Z,18.65
2022-10-13T04:18:34.096Z,15.77
2022-10-13T04:21:01.775Z,10.90
2022-10-13T04:23:28.618Z,10.30
2022-10-13T04:25:56.587Z,14.70
2022-10-13T04:28:23.465Z,17.30
2022-10-13T04:30:50.487Z,9.88
2022-10-13T04:33:17.392Z,17.45
2022-10-13T04:35:44.283Z,13.23
2022-10-13T04:38:11.145Z,14.25
2022-10-13T04:40:38.019Z,21.75
2022-10-13T04:43:04.891Z,14.35
2022-10-13T04:45:31.805Z,41.90
2022-10-13T04:48:00.559Z,81.75
2022-10-13T04:50:27.480Z,30.85
2022-10-13T04:52:54.358Z,10.57
2022-10-13T04:55:21.216Z,10.40
2022-10-13T04:57:48.083Z,10.20
2022-10-13T05:00:15.152Z,7.88
2022-10-13T05:02:42.022Z,12.30
2022-10-13T05:05:09.457Z,14.45
2022-10-13T05:07:36.345Z,13.25
2022-10-13T05:10:04.055Z,18.80
2022-10-13T05:12:30.922Z,17.67
2022-10-13T05:14:58.962Z,13.57
2022-10-13T05:17:25.902Z,32.75
2022-10-13T05:19:52.754Z,103.75
2022-10-13T05:22:19.847Z,46.05
2022-10-13T05:24:46.879Z,139.68
2022-10-13T05:27:14.339Z,50.22
2022-10-13T05:29:41.475Z,24.90
2022-10-13T05:32:08.584Z,67.95
2022-10-13T05:34:35.517Z,58.50
2022-10-13T05:37:02.476Z,79.22
2022-10-13T05:39:29.429Z,73.10
2022-10-13T05:41:56.317Z,106.95
2022-10-13T05:44:24.338Z,50.58
2022-10-13T05:46:51.231Z,35.67
2022-10-13T05:49:18.070Z,48.95
2022-10-13T05:51:48.937Z,143.45
2022-10-13T05:56:52.068Z,117.45
2022-10-13T05:59:26.071Z,36.10
2022-10-13T06:01:54.524Z,34.40
2022-10-13T06:04:26.379Z,102.82
2022-10-13T06:06:53.241Z,100.60
2022-10-13T06:09:20.246Z,117.10
2022-10-13T06:11:47.104Z,87.53
2022-10-13T06:14:13.970Z,86.32
2022-10-13T06:16:41.528Z,53.47
2022-10-13T06:19:08.408Z,39.33
2022-10-13T06:21:35.958Z,51.47
2022-10-13T06:24:03.266Z,107.82
2022-10-13T06:26:30.216Z,58.63
2022-10-13T06:28:59.741Z,90.68
2022-10-13T06:31:27.560Z,80.10
2022-10-13T06:33:54.647Z,84.38
2022-10-13T06:36:21.600Z,75.35
2022-10-13T06:38:48.545Z,91.70
2022-10-13T06:41:15.562Z,92.35
2022-10-13T06:43:42.525Z,86.68
2022-10-13T06:46:10.086Z,86.18
2022-10-13T06:48:37.051Z,32.38
2022-10-13T06:51:07.026Z,63.97
2022-10-13T06:53:34.349Z,78.45
2022-10-13T06:56:03.320Z,101.47
2022-10-13T06:58:30.912Z,51.22
2022-10-13T07:00:57.921Z,136.07
2022-10-13T07:03:25.396Z,100.65
2022-10-13T07:05:53.172Z,64.85
2022-10-13T07:08:20.640Z,71.70
2022-10-13T07:10:47.727Z,89.03
2022-10-13T07:13:14.685Z,89.03
2022-10-13T07:15:41.712Z,279.55
2022-10-13T07:18:08.938Z,91.80
2022-10-13T07:20:36.212Z,80.20
2022-10-13T07:23:03.394Z,104.60
2022-10-13T07:25:30.706Z,47.10
2022-10-13T07:27:59.452Z,63.38
2022-10-13T07:30:27.374Z,29.52
2022-10-13T07:32:54.302Z,26.65
2022-10-13T07:35:24.784Z,24.83
2022-10-13T07:37:55.369Z,17.58
2022-10-13T07:40:22.705Z,23.98
2022-10-13T07:42:49.603Z,31.15
2022-10-13T07:45:16.633Z,24.60
2022-10-13T07:47:43.548Z,19.23
2022-10-13T07:50:10.759Z,65.07
2022-10-13T07:52:37.891Z,61.80
2022-10-13T07:55:05.299Z,18.75
2022-10-13T07:57:32.261Z,21.92
2022-10-13T07:59:59.169Z,18.17
2022-10-13T08:02:26.467Z,13.65
2022-10-13T08:04:53.405Z,16.63
2022-10-13T08:07:20.695Z,14.07
2022-10-13T08:09:47.862Z,14.95
2022-10-13T08:12:14.857Z,14.88
2022-10-13T08:14:42.194Z,19.55
2022-10-13T08:17:09.273Z,11.52
2022-10-13T08:19:36.299Z,16.17
2022-10-13T08:22:05.534Z,19.98
2022-10-13T08:24:36.327Z,14.32
2022-10-13T08:27:03.699Z,18.70
2022-10-13T08:29:30.685Z,11.10
2022-10-13T08:31:57.710Z,13.23
2022-10-13T08:34:25.704Z,12.55
2022-10-13T08:36:56.404Z,13.02
2022-10-13T08:39:24.937Z,14.27
2022-10-13T08:41:52.170Z,12.60
2022-10-13T08:47:27.987Z,12.07
2022-10-13T08:50:02.117Z,11.65
2022-10-13T08:52:43.467Z,16.05
2022-10-13T08:55:44.754Z,15.77
2022-10-13T09:00:47.631Z,13.77
2022-10-13T09:03:26.593Z,9.70
2022-10-13T09:06:21.689Z,9.80
2022-10-13T09:09:01.938Z,11.02
2022-10-13T09:11:33.700Z,8.73
2022-10-13T09:14:03.853Z,7.38
2022-10-13T09:16:39.051Z,6.88
2022-10-13T09:19:26.132Z,8.80
2022-10-13T09:22:13.110Z,8.05
2022-10-13T09:24:40.401Z,6.38
2022-10-13T09:27:17.017Z,6.40
2022-10-13T09:29:45.281Z,8.48
2022-10-13T09:32:14.932Z,12.50
2022-10-13T09:34:41.934Z,7.95
2022-10-13T09:37:29.081Z,7.90
2022-10-13T09:40:13.696Z,8.05
2022-10-13T09:42:41.029Z,7.53
2022-10-13T09:45:17.431Z,8.68
2022-10-13T09:47:59.918Z,7.80
2022-10-13T09:50:32.065Z,8.20
2022-10-13T09:53:23.924Z,9.55
2022-10-13T09:56:18.755Z,6.75
2022-10-13T09:58:54.207Z,8.77
2022-10-13T10:01:35.150Z,8.13
2022-10-13T10:04:06.943Z,10.95
2022-10-13T10:06:34.946Z,6.68
2022-10-13T10:09:22.755Z,8.48
2022-10-13T10:11:53.470Z,11.32
2022-10-13T10:14:34.015Z,8.98
2022-10-13T10:17:18.705Z,13.30
2022-10-13T10:20:03.914Z,9.07
2022-10-13T10:22:54.634Z,7.80
2022-10-13T10:25:37.409Z,8.48
2022-10-13T10:28:42.661Z,10.48
2022-10-13T10:31:35.407Z,8.13
2022-10-13T10:34:20.343Z,8.25
2022-10-13T10:36:57.495Z,10.57
2022-10-13T10:39:36.874Z,8.45
2022-10-13T10:42:20.640Z,11.68
2022-10-13T10:44:51.190Z,10.45
2022-10-13T10:47:30.351Z,9.85
2022-10-13T10:50:02.646Z,8.10
2022-10-13T10:52:53.322Z,7.95
2022-10-13T10:55:34.095Z,11.88
2022-10-13T10:58:22.594Z,8.35
2022-10-13T11:00:59.753Z,10.48
2022-10-13T11:03:47.109Z,9.27
2022-10-13T11:06:17.055Z,7.57
2022-10-13T11:08:49.349Z,11.35
2022-10-13T11:11:29.256Z,5.80
2022-10-13T11:14:05.973Z,8.93
2022-10-13T11:16:41.669Z,7.30
2022-10-13T11:19:08.826Z,5.97
2022-10-13T11:22:02.053Z,8.65
2022-10-13T11:24:39.072Z,12.15
2022-10-13T11:27:11.726Z,6.88
2022-10-13T11:29:45.749Z,11.07
2022-10-13T11:32:28.188Z,9.63
2022-10-13T11:35:07.118Z,11.57
2022-10-13T11:38:17.741Z,9.75
2022-10-13T11:40:57.150Z,8.38
2022-10-13T11:43:32.960Z,8.10
2022-10-13T11:46:02.907Z,12.35
2022-10-13T11:48:53.677Z,11.27
2022-10-13T11:51:29.439Z,8.02
2022-10-13T11:54:08.532Z,8.50
2022-10-13T11:56:51.176Z,8.90
2022-10-13T11:59:45.193Z,10.75
2022-10-13T12:02:16.000Z,8.63
2022-10-13T12:04:59.533Z,12.00
2022-10-13T12:07:32.136Z,8.55
2022-10-13T12:09:59.323Z,8.40
2022-10-13T12:12:26.823Z,11.32
2022-10-13T12:14:59.895Z,8.05
2022-10-13T12:17:39.147Z,8.20
2022-10-13T12:20:24.817Z,8.80
2022-10-13T12:22:53.532Z,12.20
2022-10-13T12:25:23.343Z,13.60
2022-10-13T12:27:57.919Z,13.32
2022-10-13T12:30:29.649Z,15.13
2022-10-13T12:32:59.843Z,9.25
2022-10-13T12:35:30.507Z,10.90
2022-10-13T12:38:01.426Z,12.00
2022-10-13T12:42:56.216Z,10.13
2022-10-13T12:45:28.272Z,12.05
2022-10-13T12:47:55.913Z,8.77
2022-10-13T12:50:27.504Z,10.27
2022-10-13T12:53:19.251Z,7.97
2022-10-13T12:56:01.307Z,11.35
2022-10-13T12:58:32.355Z,11.63
2022-10-13T13:01:09.713Z,7.35
2022-10-13T13:03:38.823Z,6.53
2022-10-13T13:06:08.892Z,11.48
2022-10-13T13:08:35.867Z,10.73
2022-10-13T13:11:07.112Z,7.43
2022-10-13T13:13:34.718Z,8.40
2022-10-13T13:16:16.874Z,8.38
2022-10-13T13:18:46.897Z,11.90
2022-10-13T13:21:16.123Z,5.93
2022-10-13T13:23:51.027Z,8.10
2022-10-13T13:26:22.995Z,4.70
2022-10-13T13:28:57.035Z,7.53
2022-10-13T13:31:25.974Z,9.88
2022-10-13T13:33:53.143Z,6.38
2022-10-13T13:36:22.997Z,6.53
2022-10-13T13:38:51.013Z,7.25
2022-10-13T13:41:18.306Z,6.35
2022-10-13T13:43:45.258Z,8.10
2022-10-13T13:46:23.939Z,4.38
2022-10-13T13:48:51.803Z,8.90
2022-10-13T13:51:19.010Z,4.90
2022-10-13T13:53:46.392Z,5.25
2022-10-13T13:56:20.158Z,7.88
2022-10-13T13:58:48.398Z,5.63
2022-10-13T14:01:16.002Z,5.53
2022-10-13T14:03:43.297Z,5.38
2022-10-13T14:06:17.966Z,6.80
2022-10-13T14:08:45.037Z,7.88
2022-10-13T14:11:12.118Z,6.88
2022-10-13T14:13:39.010Z,6.45
2022-10-13T14:16:06.235Z,9.63
2022-10-13T14:18:33.378Z,10.23
2022-10-13T14:21:00.413Z,6.95
2022-10-13T14:23:27.447Z,8.45
2022-10-13T14:25:54.370Z,12.43
2022-10-13T14:28:21.362Z,11.13
2022-10-13T14:30:48.341Z,11.82
2022-10-13T14:33:19.458Z,5.70
2022-10-13T14:35:47.176Z,9.55
2022-10-13T14:38:14.750Z,8.40
2022-10-13T14:40:42.412Z,14.18
2022-10-13T14:43:09.423Z,13.55
2022-10-13T14:45:36.334Z,10.48
2022-10-13T14:48:03.518Z,8.85
2022-10-13T14:50:30.365Z,7.63
2022-10-13T14:52:57.271Z,10.95
2022-10-13T14:55:24.225Z,9.80
2022-10-13T14:57:51.187Z,6.38
2022-10-13T15:00:18.222Z,11.98
2022-10-13T15:02:45.137Z,9.48
2022-10-13T15:05:12.073Z,7.85
2022-10-13T15:07:41.099Z,7.22
2022-10-13T15:10:09.668Z,13.15
2022-10-13T15:12:36.682Z,16.60
2022-10-13T15:15:04.131Z,16.98
2022-10-13T15:17:33.362Z,14.55
2022-10-13T15:20:00.707Z,9.88
2022-10-13T15:22:27.591Z,7.80
2022-10-13T15:24:54.716Z,8.57
2022-10-13T15:27:21.723Z,9.13
2022-10-13T15:29:48.663Z,8.90
2022-10-13T15:32:18.549Z,8.02
2022-10-13T15:34:45.833Z,12.13
2022-10-13T15:37:13.285Z,11.98
2022-10-13T15:39:40.347Z,9.45
2022-10-13T15:42:07.254Z,9.55
2022-10-13T15:44:57.457Z,12.30
2022-10-13T15:47:21.127Z,12.52
2022-10-13T15:49:48.269Z,10.65
2022-10-13T15:52:15.421Z,11.00
2022-10-13T15:54:42.527Z,75.25
2022-10-13T15:57:09.509Z,62.60
2022-10-13T15:59:36.519Z,264.63
2022-10-13T16:02:03.427Z,120.07
2022-10-13T16:04:34.853Z,143.23
2022-10-13T16:07:04.167Z,49.13
2022-10-13T16:09:31.303Z,137.88
2022-10-13T16:11:58.251Z,90.10
2022-10-13T16:14:25.322Z,71.25
2022-10-13T16:16:52.375Z,203.85
2022-10-13T16:19:19.350Z,16.02
2022-10-13T16:21:47.086Z,18.45
2022-10-13T16:24:14.199Z,49.22
2022-10-13T16:26:41.158Z,88.13
2022-10-13T16:29:08.216Z,19.13
2022-10-13T16:31:35.194Z,14.75
2022-10-13T16:34:02.292Z,10.68
2022-10-13T16:36:29.240Z,17.67
2022-10-13T16:38:56.710Z,16.35
2022-10-13T16:41:24.036Z,13.20
2022-10-13T16:43:51.021Z,10.50
2022-10-13T16:46:19.758Z,12.10
2022-10-13T16:48:47.444Z,10.77
2022-10-13T16:51:20.776Z,15.45
2022-10-13T16:53:49.674Z,12.40
2022-10-13T16:56:22.088Z,11.18
2022-10-13T16:59:02.576Z,10.25
2022-10-13T17:01:30.705Z,12.90
2022-10-13T17:03:58.113Z,12.68
2022-10-13T17:06:27.434Z,14.20
2022-10-13T17:08:54.921Z,9.98
2022-10-13T17:11:24.267Z,12.40
2022-10-13T17:13:52.025Z,10.25
2022-10-13T17:16:19.678Z,7.95
2022-10-13T17:18:46.639Z,15.13
2022-10-13T17:21:15.972Z,16.10
2022-10-13T17:23:48.125Z,10.85
2022-10-13T17:26:16.279Z,10.27
2022-10-13T17:28:43.397Z,13.10
2022-10-13T17:31:17.642Z,9.95
2022-10-13T17:33:45.510Z,11.57
2022-10-13T17:36:38.789Z,10.35
2022-10-13T17:39:08.511Z,14.15
2022-10-13T17:41:35.699Z,11.40
2022-10-13T17:44:02.711Z,11.60
2022-10-13T17:46:37.396Z,14.00
2022-10-13T17:49:05.923Z,13.18
2022-10-13T17:51:32.846Z,9.82
2022-10-13T17:54:00.398Z,9.18
2022-10-13T17:56:27.957Z,12.88
2022-10-13T17:58:55.065Z,13.63
2022-10-13T18:01:26.577Z,15.50
2022-10-13T18:04:03.750Z,12.40
2022-10-13T18:06:38.021Z,13.25
2022-10-13T18:09:07.622Z,12.65
2022-10-13T18:11:34.902Z,13.68
2022-10-13T18:14:02.123Z,13.30
2022-10-13T18:16:29.005Z,14.93
2022-10-13T18:18:56.059Z,14.98
2022-10-13T18:21:26.927Z,12.45
2022-10-13T18:23:55.973Z,11.35
2022-10-13T18:26:24.050Z,13.98
2022-10-13T18:28:52.252Z,17.17
2022-10-13T18:31:28.656Z,15.55
2022-10-13T18:33:57.181Z,16.27
2022-10-13T18:36:26.860Z,17.73
2022-10-13T18:38:54.963Z,15.18
2022-10-13T18:41:24.060Z,14.38
2022-10-13T18:43:51.637Z,14.98
2022-10-13T18:46:19.255Z,12.48
2022-10-13T18:48:46.462Z,16.45
2022-10-13T18:51:15.700Z,16.55
2022-10-13T18:53:44.525Z,18.38
2022-10-13T18:56:19.931Z,20.98
2022-10-13T18:58:47.324Z,13.43
2022-10-13T19:01:17.555Z,14.25
2022-10-13T19:03:44.815Z,15.73
2022-10-13T19:06:13.988Z,16.38
2022-10-13T19:08:41.250Z,21.25
2022-10-13T19:11:18.240Z,13.82
2022-10-13T19:13:45.751Z,16.08
2022-10-13T19:16:14.380Z,13.07
2022-10-13T19:18:41.487Z,14.32
2022-10-13T19:21:09.136Z,13.88
2022-10-13T19:23:36.203Z,16.55
2022-10-13T19:26:28.416Z,15.23
2022-10-13T19:29:09.526Z,13.18
2022-10-13T19:34:04.386Z,15.48
2022-10-13T19:36:34.063Z,18.65
2022-10-13T19:39:03.720Z,16.13
2022-10-13T19:41:33.175Z,19.17
2022-10-13T19:44:00.782Z,14.20
2022-10-13T19:46:28.235Z,14.63
2022-10-13T19:48:55.242Z,12.40
2022-10-13T19:51:22.139Z,17.55
2022-10-13T19:53:49.034Z,12.57
2022-10-13T19:56:23.691Z,16.77
2022-10-13T19:58:52.087Z,14.50
2022-10-13T20:01:20.011Z,17.65
2022-10-13T20:03:47.677Z,18.67
2022-10-13T20:06:15.238Z,16.95
2022-10-13T20:08:42.294Z,14.25
2022-10-13T20:11:17.291Z,12.63
2022-10-13T20:13:47.897Z,15.38
2022-10-13T20:16:18.217Z,16.00
2022-10-13T20:18:45.419Z,14.65
2022-10-13T20:21:13.211Z,17.63
2022-10-13T20:23:41.064Z,15.38
2022-10-13T20:26:11.129Z,16.08
2022-10-13T20:28:43.084Z,21.20
2022-10-13T20:31:14.701Z,14.80
2022-10-13T20:33:42.139Z,16.92
2022-10-13T20:36:12.577Z,15.98
2022-10-13T20:38:39.722Z,13.40
2022-10-13T20:41:09.450Z,17.98
2022-10-13T20:43:37.144Z,19.77
2022-10-13T20:46:06.698Z,13.15
2022-10-13T20:49:05.162Z,14.30
2022-10-13T20:51:23.987Z,17.95
2022-10-13T20:53:51.239Z,13.98
2022-10-13T20:56:24.222Z,12.63
2022-10-13T20:58:51.720Z,19.80
2022-10-13T21:01:21.179Z,15.10
2022-10-13T21:03:52.385Z,15.75
2022-10-13T21:06:19.367Z,23.13
2022-10-13T21:08:47.378Z,20.48
2022-10-13T21:11:16.488Z,21.17
2022-10-13T21:13:44.305Z,18.25
2022-10-13T21:16:14.119Z,14.75
2022-10-13T21:18:43.854Z,23.13
2022-10-13T21:21:11.499Z,18.23
2022-10-13T21:23:38.582Z,19.75
2022-10-13T21:26:07.678Z,15.95
2022-10-13T21:28:37.321Z,13.27
2022-10-13T21:31:06.993Z,12.10
2022-10-13T21:33:35.824Z,15.73
2022-10-13T21:36:08.886Z,14.20
2022-10-13T21:38:36.162Z,14.73
2022-10-13T21:41:07.346Z,19.80
2022-10-13T21:43:34.733Z,19.80
2022-10-13T21:46:13.204Z,13.70
2022-10-13T21:48:40.392Z,14.70
2022-10-13T21:51:13.976Z,15.23
2022-10-13T21:53:41.119Z,14.65
2022-10-13T21:56:10.032Z,16.10
2022-10-13T21:58:37.378Z,13.05
2022-10-13T22:01:05.813Z,20.42
2022-10-13T22:03:33.619Z,12.43
2022-10-13T22:06:05.904Z,13.63
2022-10-13T22:08:38.418Z,15.82
2022-10-13T22:11:07.341Z,13.48
2022-10-13T22:13:34.466Z,15.35
2022-10-13T22:16:10.249Z,11.48
2022-10-13T22:18:37.284Z,11.35
2022-10-13T22:21:06.303Z,14.73
2022-10-13T22:23:33.348Z,15.52
2022-10-13T22:26:00.393Z,14.70
2022-10-13T22:28:27.364Z,14.63
2022-10-13T22:30:54.292Z,18.25
2022-10-13T22:33:21.259Z,10.70
2022-10-13T22:35:48.197Z,16.50
2022-10-13T22:38:15.442Z,17.45
2022-10-13T22:40:42.474Z,15.88
2022-10-13T22:43:09.544Z,13.80
2022-10-13T22:45:36.429Z,16.80
2022-10-13T22:48:03.472Z,13.95
2022-10-13T22:50:30.359Z,20.00
2022-10-13T22:52:57.314Z,20.27
2022-10-13T22:55:24.222Z,12.13
2022-10-13T22:57:51.152Z,15.00
2022-10-13T23:00:18.269Z,17.10
2022-10-13T23:02:45.158Z,20.58
2022-10-13T23:05:12.043Z,13.80
2022-10-13T23:07:38.910Z,15.68
2022-10-13T23:10:06.397Z,21.05
2022-10-13T23:12:33.334Z,15.95
2022-10-13T23:15:00.240Z,12.93
2022-10-13T23:17:27.119Z,16.98
2022-10-13T23:19:54.113Z,18.25
2022-10-13T23:22:21.010Z,22.92
2022-10-13T23:24:47.931Z,16.77
2022-10-13T23:27:14.899Z,11.98
2022-10-13T23:29:41.782Z,12.80
2022-10-13T23:32:09.978Z,13.30
2022-10-13T23:34:37.062Z,12.80
2022-10-13T23:37:03.985Z,12.40
2022-10-13T23:39:31.250Z,17.42
2022-10-13T23:41:58.442Z,8.68
2022-10-13T23:44:25.636Z,11.55
2022-10-13T23:46:52.628Z,20.05
2022-10-13T23:49:19.522Z,17.25
2022-10-13T23:51:46.438Z,8.23
2022-10-13T23:54:13.461Z,13.68
2022-10-13T23:56:40.499Z,10.75
2022-10-13T23:59:07.487Z,10.63
